Time;durP1;ratioP1;P1;durP2;ratioP2;P2;SDS_P1;SDS_P2;PMS_P1;PMS_P2;Temp;Humidity;BMP_temperature;BMP_pressure;BME280_temperature;BME280_humidity;BME280_pressure;Samples;Min_cycle;Max_cycle;Signal;HPM_P1;HPM_P2
2022/11/23 00:00:15;;;;;;;19.92;13.40;;;7.90;99.90;;;;;;7372436;19;20018;-50
2022/11/23 00:02:42;;;;;;;15.40;12.75;;;7.90;99.90;;;;;;7370388;19;20101;-43
2022/11/23 00:05:09;;;;;;;18.20;13.57;;;7.90;99.90;;;;;;7370299;19;20022;-44
2022/11/23 00:07:37;;;;;;;17.38;12.57;;;7.90;99.90;;;;;;7367174;19;20940;-48
2022/11/23 00:10:04;;;;;;;16.00;12.43;;;7.90;99.90;;;;;;7371801;19;20369;-44
2022/11/23 00:12:32;;;;;;;17.02;13.43;;;7.90;99.90;;;;;;7370410;19;20019;-44
2022/11/23 00:15:00;;;;;;;16.50;12.88;;;7.90;99.90;;;;;;7369650;19;20114;-47
2022/11/23 00:17:39;;;;;;;14.85;12.55;;;7.90;99.90;;;;;;7369573;19;20026;-53
2022/11/23 00:20:08;;;;;;;16.98;12.48;;;7.90;99.90;;;;;;7372836;19;20529;-52
2022/11/23 00:22:38;;;;;;;17.02;14.15;;;7.90;99.90;;;;;;7368148;19;20503;-51
2022/11/23 00:25:05;;;;;;;19.63;13.10;;;7.90;99.90;;;;;;7372188;19;20018;-48
2022/11/23 00:27:36;;;;;;;14.35;12.32;;;7.90;99.90;;;;;;7366671;19;20078;-51
2022/11/23 00:30:04;;;;;;;18.02;13.02;;;7.90;99.90;;;;;;7368425;19;20050;-51
2022/11/23 00:32:32;;;;;;;18.15;12.82;;;7.90;99.90;;;;;;7365867;19;20014;-44
2022/11/23 00:34:59;;;;;;;20.17;13.98;;;7.90;99.90;;;;;;7371375;19;20022;-45
2022/11/23 00:37:25;;;;;;;16.85;13.52;;;7.90;99.90;;;;;;7367682;19;20032;-51
2022/11/23 00:39:54;;;;;;;21.20;14.40;;;7.90;99.90;;;;;;7369610;19;20033;-53
2022/11/23 00:42:21;;;;;;;20.50;13.05;;;7.90;99.90;;;;;;7367626;19;20010;-45
2022/11/23 00:44:48;;;;;;;22.90;14.45;;;7.90;99.90;;;;;;7372054;19;20022;-52
2022/11/23 00:47:14;;;;;;;19.67;13.52;;;7.90;99.90;;;;;;7369216;19;20418;-51
2022/11/23 00:49:40;;;;;;;19.90;15.38;;;7.90;99.90;;;;;;7371738;19;20597;-50
2022/11/23 00:52:07;;;;;;;16.20;14.48;;;7.90;99.90;;;;;;7369410;19;21482;-51
2022/11/23 00:54:34;;;;;;;18.92;15.00;;;7.90;99.90;;;;;;7373085;19;20029;-52
2022/11/23 00:57:00;;;;;;;21.80;15.40;;;7.80;99.90;;;;;;7367403;19;20489;-51
2022/11/23 00:59:46;;;;;;;18.88;14.60;;;7.90;99.90;;;;;;7369785;19;20042;-51
2022/11/23 01:02:14;;;;;;;21.50;16.35;;;7.90;99.90;;;;;;7369082;19;20021;-52
2022/11/23 01:04:42;;;;;;;19.08;14.55;;;7.90;99.90;;;;;;7369346;19;20014;-52
2022/11/23 01:07:11;;;;;;;20.70;15.63;;;7.90;99.90;;;;;;7370368;19;20022;-51
2022/11/23 01:09:44;;;;;;;17.48;13.88;;;7.90;99.90;;;;;;7371354;19;20024;-51
2022/11/23 01:12:12;;;;;;;18.05;14.77;;;7.90;99.90;;;;;;7370283;19;20019;-52
2022/11/23 01:14:38;;;;;;;21.13;15.48;;;7.90;99.90;;;;;;7368599;19;20018;-50
2022/11/23 01:17:05;;;;;;;23.67;15.80;;;7.90;99.90;;;;;;7370761;19;20015;-44
2022/11/23 01:19:41;;;;;;;24.08;15.32;;;7.90;99.90;;;;;;7378672;19;20021;-44
2022/11/23 01:22:07;;;;;;;20.58;15.30;;;7.90;99.90;;;;;;7379590;19;20857;-45
2022/11/23 01:24:43;;;;;;;18.40;14.10;;;7.90;99.90;;;;;;7379710;19;20022;-45
2022/11/23 01:27:11;;;;;;;19.83;14.48;;;7.90;99.90;;;;;;7379730;19;20613;-44
2022/11/23 01:29:37;;;;;;;18.33;14.93;;;7.90;99.90;;;;;;7373845;19;20531;-45
2022/11/23 01:32:04;;;;;;;15.70;13.52;;;7.90;99.90;;;;;;7379224;19;20015;-52
2022/11/23 01:34:35;;;;;;;19.30;13.82;;;7.90;99.90;;;;;;7373753;19;20019;-53
2022/11/23 01:37:01;;;;;;;17.15;15.07;;;7.90;99.90;;;;;;7376624;19;20011;-53
2022/11/23 01:39:29;;;;;;;15.85;13.32;;;7.90;99.90;;;;;;7370639;19;20052;-52
2022/11/23 01:41:55;;;;;;;15.82;14.15;;;7.90;99.90;;;;;;7375819;19;20015;-45
2022/11/23 01:44:26;;;;;;;20.33;14.70;;;7.90;99.90;;;;;;7373655;19;20019;-48
2022/11/23 01:46:54;;;;;;;;;;;7.90;99.90;;;;;;7378354;19;20029;-47
2022/11/23 01:49:22;;;;;;;18.45;13.80;;;7.90;99.90;;;;;;7373961;19;19929;-48
2022/11/23 01:51:51;;;;;;;16.50;13.70;;;7.90;99.90;;;;;;7377343;19;20351;-45
2022/11/23 01:54:27;;;;;;;19.13;13.40;;;7.90;99.90;;;;;;7372882;19;20335;-53
2022/11/23 01:56:59;;;;;;;18.10;14.20;;;8.00;99.90;;;;;;7375457;19;20018;-53
2022/11/23 01:59:44;;;;;;;15.93;12.63;;;8.00;99.90;;;;;;7371965;19;20090;-54
2022/11/23 02:02:13;;;;;;;18.88;13.45;;;8.00;99.90;;;;;;7369006;19;20026;-52
2022/11/23 02:05:01;;;;;;;18.95;12.90;;;8.00;99.90;;;;;;7369997;19;20046;-45
2022/11/23 02:07:31;;;;;;;15.95;13.20;;;8.00;99.90;;;;;;7374730;19;20489;-44
2022/11/23 02:09:59;;;;;;;14.90;12.40;;;8.00;99.90;;;;;;7374471;19;20052;-44
2022/11/23 02:12:34;;;;;;;16.40;12.95;;;8.00;99.90;;;;;;7372788;19;20019;-44
2022/11/23 02:15:01;;;;;;;17.30;13.00;;;8.00;99.90;;;;;;7379212;19;20018;-51
2022/11/23 02:17:39;;;;;;;17.45;13.18;;;8.00;99.90;;;;;;7375134;19;20325;-53
2022/11/23 02:20:16;;;;;;;17.98;13.27;;;8.00;99.90;;;;;;7376282;19;20025;-53
2022/11/23 02:23:07;;;;;;;19.15;12.95;;;8.00;99.90;;;;;;7367309;19;20018;-45
2022/11/23 02:25:39;;;;;;;17.80;12.30;;;8.00;99.90;;;;;;7376709;19;20022;-44
2022/11/23 02:28:08;;;;;;;15.32;12.20;;;8.00;99.90;;;;;;7374053;19;20570;-50
2022/11/23 02:30:37;;;;;;;15.30;12.68;;;8.00;99.90;;;;;;7372327;19;20517;-52
2022/11/23 02:33:06;;;;;;;16.52;13.32;;;8.00;99.90;;;;;;7374057;19;20019;-53
2022/11/23 02:35:49;;;;;;;22.27;13.82;;;8.00;99.90;;;;;;7371007;19;20021;-53
2022/11/23 02:38:27;;;;;;;20.52;13.70;;;8.00;99.90;;;;;;7373400;19;20018;-52
2022/11/23 02:41:03;;;;;;;19.55;15.25;;;8.00;99.90;;;;;;7370886;19;20018;-51
2022/11/23 02:43:31;;;;;;;20.33;14.30;;;8.00;99.90;;;;;;7370295;19;20018;-51
2022/11/23 02:46:02;;;;;;;18.35;13.90;;;8.00;99.90;;;;;;7372282;19;20019;-52
2022/11/23 02:48:48;;;;;;;21.05;13.93;;;8.00;99.90;;;;;;7373087;19;20030;-53
2022/11/23 02:51:34;;;;;;;22.15;14.23;;;8.00;99.90;;;;;;7374520;19;20019;-49
2022/11/23 02:54:02;;;;;;;21.88;14.43;;;8.00;99.90;;;;;;7372498;19;20073;-49
2022/11/23 02:56:30;;;;;;;20.77;14.48;;;8.00;99.90;;;;;;7371935;19;20369;-53
2022/11/23 02:58:59;;;;;;;21.73;14.80;;;8.00;99.90;;;;;;7369272;19;20038;-53
2022/11/23 03:01:42;;;;;;;22.30;14.65;;;8.00;99.90;;;;;;7372319;19;21013;-52
2022/11/23 03:04:09;;;;;;;23.58;15.25;;;8.00;99.90;;;;;;7368967;19;20327;-53
2022/11/23 03:06:36;;;;;;;20.05;14.80;;;8.10;99.90;;;;;;7369605;19;20061;-52
2022/11/23 03:09:03;;;;;;;25.08;15.65;;;8.10;99.90;;;;;;7371715;19;20018;-49
2022/11/23 03:11:30;;;;;;;27.75;15.63;;;8.10;99.90;;;;;;7369294;19;20010;-52
2022/11/23 03:13:57;;;;;;;21.92;14.63;;;8.10;99.90;;;;;;7369688;19;20024;-50
2022/11/23 03:16:24;;;;;;;30.00;16.33;;;8.10;99.90;;;;;;7368218;19;20038;-49
2022/11/23 03:18:51;;;;;;;22.65;16.85;;;8.10;99.90;;;;;;7369611;19;20121;-52
2022/11/23 03:21:18;;;;;;;26.88;15.75;;;8.10;99.90;;;;;;7372798;19;21036;-51
2022/11/23 03:23:45;;;;;;;23.77;16.40;;;8.10;99.90;;;;;;7369324;19;20014;-51
2022/11/23 03:26:12;;;;;;;24.25;16.65;;;8.10;99.90;;;;;;7371706;19;20026;-52
2022/11/23 03:28:48;;;;;;;22.00;16.52;;;8.10;99.90;;;;;;7371101;19;20481;-53
2022/11/23 03:31:15;;;;;;;26.73;15.43;;;8.10;99.90;;;;;;7373141;19;20014;-51
2022/11/23 03:33:42;;;;;;;31.25;17.10;;;8.10;99.90;;;;;;7374155;19;20490;-52
2022/11/23 03:36:08;;;;;;;30.70;17.30;;;8.10;99.90;;;;;;7371344;19;20018;-53
2022/11/23 03:38:41;;;;;;;28.10;16.70;;;8.10;99.90;;;;;;7369357;19;20018;-52
2022/11/23 03:41:21;;;;;;;27.45;17.33;;;8.10;99.90;;;;;;7369049;19;20022;-53
2022/11/23 03:43:51;;;;;;;26.80;17.23;;;8.10;99.90;;;;;;7371512;19;20018;-53
2022/11/23 03:46:17;;;;;;;29.40;17.92;;;8.10;99.90;;;;;;7369435;19;20018;-54
2022/11/23 03:48:44;;;;;;;30.95;18.52;;;8.20;99.90;;;;;;7371057;19;20018;-51
2022/11/23 03:51:11;;;;;;;33.10;18.23;;;8.20;99.90;;;;;;7367105;19;20057;-52
2022/11/23 03:53:39;;;;;;;28.38;17.55;;;8.20;99.90;;;;;;7369311;19;20023;-52
2022/11/23 03:56:07;;;;;;;27.17;17.38;;;8.20;99.90;;;;;;7370568;19;20026;-45
2022/11/23 03:58:38;;;;;;;33.88;19.45;;;8.10;99.90;;;;;;7367630;19;20022;-46
2022/11/23 04:01:14;;;;;;;29.90;18.42;;;8.10;99.90;;;;;;7366895;19;20022;-44
2022/11/23 04:03:45;;;;;;;32.58;19.58;;;8.20;99.90;;;;;;7370316;19;20014;-44
2022/11/23 04:06:18;;;;;;;29.92;19.73;;;8.20;99.90;;;;;;7372023;19;21024;-43
2022/11/23 04:09:00;;;;;;;36.35;20.27;;;8.20;99.90;;;;;;7367517;19;20018;-45
2022/11/23 04:11:50;;;;;;;32.95;19.58;;;8.10;99.90;;;;;;7368440;19;20039;-52
2022/11/23 04:14:18;;;;;;;32.08;19.42;;;8.10;99.90;;;;;;7365902;19;20042;-52
2022/11/23 04:16:45;;;;;;;34.38;20.73;;;8.10;99.90;;;;;;7370343;19;20045;-45
2022/11/23 04:19:11;;;;;;;32.10;19.73;;;8.10;99.90;;;;;;7371780;19;20010;-44
2022/11/23 04:21:45;;;;;;;33.40;20.33;;;8.10;99.90;;;;;;7368473;19;20018;-44
2022/11/23 04:24:13;;;;;;;33.60;20.50;;;8.10;99.90;;;;;;7368666;19;20018;-46
2022/11/23 04:26:43;;;;;;;42.70;20.02;;;8.10;99.90;;;;;;7365463;19;20022;-52
2022/11/23 04:29:11;;;;;;;41.60;19.50;;;8.00;99.90;;;;;;7365954;19;20417;-43
2022/11/23 04:31:47;;;;;;;32.13;19.30;;;8.10;99.90;;;;;;7369432;19;20025;-44
2022/11/23 04:34:17;;;;;;;31.98;19.50;;;8.00;99.90;;;;;;7370436;19;20038;-44
2022/11/23 04:36:49;;;;;;;29.60;18.35;;;8.00;99.90;;;;;;7372402;19;20018;-45
2022/11/23 04:39:20;;;;;;;30.13;20.17;;;8.00;99.90;;;;;;7368849;19;20018;-47
2022/11/23 04:42:05;;;;;;;32.92;20.50;;;8.00;99.90;;;;;;7374186;19;20322;-44
2022/11/23 04:44:33;;;;;;;37.05;20.50;;;8.00;99.90;;;;;;7367553;19;20458;-42
2022/11/23 04:47:04;;;;;;;40.78;20.73;;;8.00;99.90;;;;;;7373801;19;20046;-45
2022/11/23 04:49:34;;;;;;;29.63;20.15;;;8.00;99.90;;;;;;7371668;19;20363;-46
2022/11/23 04:52:00;;;;;;;34.63;20.77;;;8.10;99.90;;;;;;7370904;19;20018;-44
2022/11/23 04:54:36;;;;;;;40.05;19.77;;;8.10;99.90;;;;;;7375591;19;20375;-44
2022/11/23 04:57:06;;;;;;;31.23;19.95;;;8.10;99.90;;;;;;7376031;19;20502;-43
2022/11/23 04:59:36;;;;;;;29.95;20.35;;;8.10;99.90;;;;;;7376341;19;20375;-44
2022/11/23 05:02:03;;;;;;;32.58;19.75;;;8.10;99.90;;;;;;7377857;19;20022;-46
2022/11/23 05:04:56;;;;;;;31.30;18.75;;;8.10;99.90;;;;;;7375854;19;20501;-45
2022/11/23 05:07:38;;;;;;;35.53;21.10;;;8.10;99.90;;;;;;7376242;19;20872;-45
2022/11/23 05:10:05;;;;;;;31.80;20.25;;;8.10;99.90;;;;;;7374069;19;20018;-43
2022/11/23 05:12:35;;;;;;;31.38;21.27;;;8.10;99.90;;;;;;7377353;19;20018;-43
2022/11/23 05:15:04;;;;;;;30.25;20.38;;;8.10;99.90;;;;;;7372426;19;20031;-44
2022/11/23 05:17:36;;;;;;;28.63;17.83;;;8.10;99.90;;;;;;7375613;19;20022;-44
2022/11/23 05:20:06;;;;;;;30.73;19.23;;;8.10;99.90;;;;;;7379528;19;20025;-46
2022/11/23 05:22:54;;;;;;;29.20;18.83;;;8.00;99.90;;;;;;7373895;19;20374;-43
2022/11/23 05:25:28;;;;;;;27.00;18.00;;;8.00;99.90;;;;;;7372817;19;20019;-44
2022/11/23 05:28:04;;;;;;;28.92;17.83;;;8.00;99.90;;;;;;7375393;19;20021;-52
2022/11/23 05:30:32;;;;;;;29.52;17.08;;;8.00;99.90;;;;;;7372356;19;20022;-51
2022/11/23 05:33:11;;;;;;;25.75;17.50;;;7.90;99.90;;;;;;7376724;19;20060;-51
2022/11/23 05:35:38;;;;;;;28.55;16.48;;;7.90;99.90;;;;;;7372599;19;20019;-52
2022/11/23 05:38:05;;;;;;;28.85;16.80;;;7.90;99.90;;;;;;7373364;19;20359;-53
2022/11/23 05:40:32;;;;;;;28.60;16.55;;;7.80;99.90;;;;;;7372337;19;20493;-52
2022/11/23 05:43:03;;;;;;;26.55;16.23;;;7.70;99.90;;;;;;7372421;19;20037;-50
2022/11/23 05:45:32;;;;;;;23.67;14.95;;;7.70;99.90;;;;;;7374144;19;20411;-52
2022/11/23 05:47:58;;;;;;;23.73;16.17;;;7.70;99.90;;;;;;7373032;19;20021;-52
2022/11/23 05:50:49;;;;;;;26.27;14.73;;;7.60;99.90;;;;;;7374498;19;20441;-52
2022/11/23 05:53:22;;;;;;;29.77;15.40;;;7.50;99.90;;;;;;7373034;19;20045;-51
2022/11/23 05:56:00;;;;;;;25.08;15.07;;;7.50;99.90;;;;;;7374849;19;20587;-52
2022/11/23 05:58:34;;;;;;;29.30;14.65;;;7.50;99.90;;;;;;7374550;19;20580;-52
2022/11/23 06:01:02;;;;;;;22.73;13.80;;;7.50;99.90;;;;;;7369862;19;20468;-51
2022/11/23 06:03:35;;;;;;;23.80;13.95;;;7.50;99.90;;;;;;7370543;19;20014;-43
2022/11/23 06:06:01;;;;;;;29.70;14.85;;;7.50;99.90;;;;;;7374243;19;20029;-44
2022/11/23 06:08:35;;;;;;;24.38;13.48;;;7.50;99.90;;;;;;7373468;19;20533;-46
2022/11/23 06:11:02;;;;;;;26.30;14.48;;;7.50;99.90;;;;;;7373492;19;20014;-45
2022/11/23 06:13:32;;;;;;;24.40;13.82;;;7.50;99.90;;;;;;7370697;19;20490;-44
2022/11/23 06:15:59;;;;;;;22.25;12.30;;;7.50;99.90;;;;;;7376609;19;20011;-44
2022/11/23 06:18:33;;;;;;;20.85;12.38;;;7.50;99.90;;;;;;7374325;19;20026;-45
2022/11/23 06:21:00;;;;;;;20.27;12.32;;;7.50;99.90;;;;;;7373224;19;20024;-47
2022/11/23 06:23:28;;;;;;;21.02;12.10;;;7.40;99.90;;;;;;7376125;19;20022;-46
2022/11/23 06:26:00;;;;;;;18.35;12.40;;;7.40;99.90;;;;;;7372863;19;20528;-45
2022/11/23 06:28:49;;;;;;;20.13;12.40;;;7.40;99.90;;;;;;7374240;19;20022;-44
2022/11/23 06:31:18;;;;;;;21.88;14.68;;;7.40;99.90;;;;;;7372326;19;20010;-47
2022/11/23 06:33:51;;;;;;;;;;;7.40;99.90;;;;;;7375459;19;20788;-54
2022/11/23 06:36:22;;;;;;;16.00;10.20;;;7.30;99.90;;;;;;7370779;19;19919;-54
2022/11/23 06:38:50;;;;;;;25.35;10.98;;;7.20;99.90;;;;;;7371701;19;20021;-50
2022/11/23 06:41:23;;;;;;;19.05;10.07;;;7.10;99.90;;;;;;7370496;19;20561;-52
2022/11/23 06:43:52;;;;;;;17.80;9.23;;;7.00;99.90;;;;;;7370242;19;20382;-46
2022/11/23 06:46:49;;;;;;;19.13;9.93;;;7.00;99.90;;;;;;7369696;19;20719;-53
2022/11/23 06:49:18;;;;;;;16.40;8.77;;;6.90;99.90;;;;;;7371415;19;20018;-52
2022/11/23 06:51:50;;;;;;;18.25;9.10;;;6.90;99.90;;;;;;7368137;19;20089;-49
2022/11/23 06:54:17;;;;;;;13.63;8.57;;;6.90;99.90;;;;;;7370603;19;20485;-52
2022/11/23 06:56:51;;;;;;;20.73;9.07;;;6.90;99.90;;;;;;7368353;19;20659;-51
2022/11/23 06:59:18;;;;;;;18.88;9.68;;;6.80;99.90;;;;;;7372630;19;20050;-45
2022/11/23 07:01:45;;;;;;;16.23;8.93;;;6.90;99.90;;;;;;7373152;19;20014;-45
2022/11/23 07:04:17;;;;;;;16.52;10.20;;;6.90;99.90;;;;;;7369723;19;20026;-45
2022/11/23 07:06:48;;;;;;;19.95;8.73;;;7.00;99.90;;;;;;7367592;19;20086;-44
2022/11/23 07:09:32;;;;;;;23.17;10.10;;;7.00;99.90;;;;;;7369109;19;20014;-53
2022/11/23 07:12:26;;;;;;;15.18;8.45;;;7.00;99.90;;;;;;7369670;19;20018;-53
2022/11/23 07:14:52;;;;;;;23.45;8.90;;;7.10;99.90;;;;;;7371417;19;20383;-52
2022/11/23 07:17:19;;;;;;;21.17;8.38;;;7.10;99.90;;;;;;7373506;19;20046;-47
2022/11/23 07:19:46;;;;;;;12.75;8.25;;;7.20;99.90;;;;;;7371514;19;20014;-46
2022/11/23 07:22:13;;;;;;;18.60;8.50;;;7.20;99.90;;;;;;7372428;19;20666;-52
2022/11/23 07:24:56;;;;;;;18.83;9.20;;;7.20;99.90;;;;;;7369476;19;20018;-46
2022/11/23 07:27:23;;;;;;;18.90;9.05;;;7.30;99.90;;;;;;7373188;19;20518;-43
2022/11/23 07:29:49;;;;;;;15.38;7.47;;;7.30;99.90;;;;;;7368367;19;20031;-51
2022/11/23 07:32:17;;;;;;;19.15;7.65;;;7.30;99.90;;;;;;7370509;19;20025;-50
2022/11/23 07:34:49;;;;;;;21.63;12.65;;;7.40;99.90;;;;;;7368214;19;20096;-51
2022/11/23 07:37:16;;;;;;;19.38;8.38;;;7.40;99.90;;;;;;7367804;19;20474;-50
2022/11/23 07:39:44;;;;;;;16.42;8.85;;;7.40;99.90;;;;;;7371162;19;20465;-53
2022/11/23 07:42:11;;;;;;;15.48;7.95;;;7.40;99.90;;;;;;7368857;19;20017;-48
2022/11/23 07:44:39;;;;;;;15.13;7.35;;;7.50;99.90;;;;;;7368798;19;20030;-43
2022/11/23 07:47:11;;;;;;;19.40;7.57;;;7.50;99.90;;;;;;7369077;19;20074;-44
2022/11/23 07:49:38;;;;;;;15.25;7.40;;;7.60;99.90;;;;;;7372297;19;20011;-43
2022/11/23 07:52:04;;;;;;;15.68;6.97;;;7.60;99.90;;;;;;7369261;19;21194;-47
2022/11/23 07:54:31;;;;;;;14.02;7.60;;;7.60;99.90;;;;;;7367865;19;20116;-51
2022/11/23 07:56:57;;;;;;;15.38;7.43;;;7.60;99.90;;;;;;7367945;19;20893;-52
2022/11/23 07:59:24;;;;;;;14.02;7.25;;;7.60;99.90;;;;;;7366465;19;20014;-52
2022/11/23 08:01:51;;;;;;;16.42;7.65;;;7.70;99.90;;;;;;7368793;19;20010;-50
2022/11/23 08:04:21;;;;;;;17.33;7.90;;;7.70;99.90;;;;;;7366879;19;20038;-52
2022/11/23 08:06:51;;;;;;;18.70;8.40;;;7.70;99.90;;;;;;7370523;19;20015;-50
2022/11/23 08:09:21;;;;;;;15.48;8.25;;;7.70;99.90;;;;;;7373162;19;20022;-51
2022/11/23 08:11:48;;;;;;;16.52;6.90;;;7.80;99.90;;;;;;7370988;19;20611;-50
2022/11/23 08:14:15;;;;;;;15.50;7.30;;;7.80;99.90;;;;;;7373025;19;20014;-51
2022/11/23 08:16:42;;;;;;;15.38;7.40;;;7.80;99.90;;;;;;7366613;19;20027;-52
2022/11/23 08:19:08;;;;;;;13.30;7.30;;;7.90;99.90;;;;;;7367724;19;20023;-50
2022/11/23 08:21:35;;;;;;;15.77;6.97;;;7.90;99.90;;;;;;7367962;19;20410;-52
2022/11/23 08:24:01;;;;;;;13.75;6.80;;;7.90;99.90;;;;;;7367013;19;20395;-44
2022/11/23 08:26:28;;;;;;;17.23;7.63;;;7.90;99.90;;;;;;7369588;19;20506;-43
2022/11/23 08:28:56;;;;;;;15.88;7.70;;;8.00;99.90;;;;;;7368658;19;20010;-46
2022/11/23 08:31:22;;;;;;;16.63;7.43;;;8.00;99.90;;;;;;7371890;19;20047;-43
2022/11/23 08:33:50;;;;;;;15.15;7.18;;;8.00;99.90;;;;;;7368413;19;20124;-45
2022/11/23 08:36:17;;;;;;;17.15;6.68;;;8.10;99.90;;;;;;7368423;19;20730;-44
2022/11/23 08:38:51;;;;;;;15.18;6.95;;;8.10;99.90;;;;;;7366378;19;20018;-44
2022/11/23 08:41:23;;;;;;;14.13;7.18;;;8.10;99.90;;;;;;7369287;19;20019;-44
2022/11/23 08:43:53;;;;;;;19.20;7.93;;;8.20;99.90;;;;;;7367049;19;20482;-44
2022/11/23 08:46:23;;;;;;;15.93;6.97;;;8.20;99.90;;;;;;7370274;19;20659;-46
2022/11/23 08:48:51;;;;;;;17.55;7.03;;;8.20;99.90;;;;;;7364601;19;20679;-46
2022/11/23 08:51:21;;;;;;;14.63;6.13;;;8.30;99.90;;;;;;7369491;19;20449;-43
2022/11/23 08:53:49;;;;;;;14.10;6.38;;;8.40;99.90;;;;;;7365478;19;20018;-44
2022/11/23 08:56:16;;;;;;;18.73;6.05;;;8.30;99.90;;;;;;7367957;19;20018;-45
2022/11/23 08:58:43;;;;;;;16.60;6.20;;;8.30;99.90;;;;;;7361081;19;20018;-45
2022/11/23 09:01:11;;;;;;;15.30;6.38;;;8.40;99.90;;;;;;7360784;19;20018;-44
2022/11/23 09:03:38;;;;;;;15.45;6.70;;;8.40;99.90;;;;;;7358938;19;20099;-45
2022/11/23 09:06:04;;;;;;;10.82;5.93;;;8.40;99.90;;;;;;7363030;19;20056;-43
2022/11/23 09:08:31;;;;;;;16.08;6.07;;;8.50;99.90;;;;;;7367129;19;20754;-42
2022/11/23 09:14:52;;;;;;;13.27;5.65;;;8.60;99.90;;;;;;7354097;19;19998;-42
2022/11/23 09:25:09;;;;;;;10.40;4.88;;;8.70;99.90;;;;;;7366752;19;20009;-42
2022/11/23 09:27:35;;;;;;;17.20;4.82;;;8.80;99.90;;;;;;7365780;19;20483;-43
2022/11/23 09:30:01;;;;;;;14.98;5.18;;;8.80;99.90;;;;;;7370496;19;20026;-43
2022/11/23 09:32:28;;;;;;;18.73;4.90;;;8.90;99.90;;;;;;7367658;19;20108;-43
2022/11/23 09:34:55;;;;;;;10.68;4.80;;;8.90;99.90;;;;;;7370345;19;20479;-44
2022/11/23 09:37:21;;;;;;;14.80;4.60;;;8.90;99.90;;;;;;7365944;19;20046;-42
2022/11/23 09:39:47;;;;;;;13.40;4.80;;;8.90;99.90;;;;;;7372765;19;21233;-44
2022/11/23 09:42:35;;;;;;;10.18;4.18;;;8.90;99.90;;;;;;7371706;19;20037;-42
2022/11/23 09:45:15;;;;;;;11.63;4.47;;;8.90;99.90;;;;;;7375955;19;20015;-44
2022/11/23 09:51:38;;;;;;;15.45;3.97;;;8.90;99.90;;;;;;7376171;19;19995;-44
2022/11/23 09:54:18;;;;;;;15.77;4.35;;;8.90;99.90;;;;;;7378239;19;20015;-43
2022/11/23 09:56:48;;;;;;;14.60;5.10;;;8.90;99.90;;;;;;7377813;19;20051;-44
2022/11/23 09:59:29;;;;;;;17.17;5.03;;;8.90;99.90;;;;;;7377963;19;20344;-43
2022/11/23 10:01:56;;;;;;;12.70;4.13;;;9.00;99.90;;;;;;7383529;19;20022;-56
2022/11/23 10:04:23;;;;;;;16.75;4.15;;;9.00;99.90;;;;;;7384707;19;20094;-49
2022/11/23 10:06:59;;;;;;;13.18;3.88;;;9.00;99.90;;;;;;7388740;19;20025;-47
2022/11/23 10:09:44;;;;;;;10.10;3.47;;;9.00;99.90;;;;;;7382888;19;20015;-45
2022/11/23 10:12:55;;;;;;;10.50;3.70;;;9.00;99.90;;;;;;7381292;19;20015;-44
2022/11/23 10:16:01;;;;;;;17.85;3.58;;;9.00;99.90;;;;;;7377076;19;20018;-47
2022/11/23 10:18:41;;;;;;;15.05;3.42;;;8.90;99.90;;;;;;7384557;19;20924;-46
2022/11/23 10:21:18;;;;;;;16.60;4.32;;;8.90;99.90;;;;;;7383458;19;20066;-48
2022/11/23 10:23:52;;;;;;;17.33;5.00;;;8.90;99.90;;;;;;7378472;19;20014;-44
2022/11/23 10:26:42;;;;;;;11.15;3.25;;;8.90;99.90;;;;;;7376037;19;20459;-44
2022/11/23 10:29:16;;;;;;;11.15;3.00;;;8.90;99.90;;;;;;7377512;19;20394;-47
2022/11/23 10:31:46;;;;;;;14.50;3.63;;;8.90;99.90;;;;;;7384234;19;20014;-45
2022/11/23 10:34:16;;;;;;;12.52;3.08;;;8.90;99.90;;;;;;7378602;19;20440;-45
2022/11/23 10:36:43;;;;;;;11.40;3.58;;;9.00;99.90;;;;;;7380281;19;20014;-44
2022/11/23 10:39:22;;;;;;;13.70;3.80;;;9.10;99.90;;;;;;7379682;19;20498;-44
2022/11/23 10:41:56;;;;;;;11.13;2.70;;;9.10;99.90;;;;;;7383461;19;20418;-45
2022/11/23 10:44:41;;;;;;;13.95;3.00;;;9.30;99.90;;;;;;7386530;19;20022;-48
2022/11/23 10:47:08;;;;;;;11.15;2.67;;;9.30;99.90;;;;;;7378878;19;20446;-47
2022/11/23 10:49:35;;;;;;;14.63;3.63;;;9.20;99.90;;;;;;7386371;19;20023;-49
2022/11/23 10:52:28;;;;;;;18.20;3.55;;;9.20;99.90;;;;;;7384628;19;20078;-49
2022/11/23 10:54:57;;;;;;;12.80;3.00;;;9.30;99.90;;;;;;7385040;19;20666;-47
2022/11/23 10:57:26;;;;;;;11.32;2.70;;;9.40;99.90;;;;;;7386651;19;20525;-48
2022/11/23 11:00:00;;;;;;;12.02;3.55;;;9.50;99.90;;;;;;7385974;19;20026;-48
2022/11/23 11:02:27;;;;;;;12.63;2.95;;;9.80;99.90;;;;;;7387142;19;20021;-47
2022/11/23 11:05:21;;;;;;;12.23;2.97;;;10.10;99.90;;;;;;7381950;19;20471;-49
2022/11/23 11:07:48;;;;;;;9.55;3.05;;;10.50;99.90;;;;;;7380968;19;20512;-46
2022/11/23 11:10:34;;;;;;;13.55;3.22;;;10.90;99.90;;;;;;7383010;19;20022;-48
2022/11/23 11:13:00;;;;;;;9.27;2.42;;;10.90;99.90;;;;;;7385833;19;20019;-49
2022/11/23 11:15:27;;;;;;;12.63;3.38;;;10.90;99.90;;;;;;7387473;19;20510;-48
2022/11/23 11:17:55;;;;;;;9.30;2.92;;;11.00;99.90;;;;;;7384172;19;20340;-50
2022/11/23 11:20:28;;;;;;;10.82;2.78;;;10.90;99.90;;;;;;7385156;19;20018;-46
2022/11/23 11:22:58;;;;;;;12.60;3.17;;;10.90;99.90;;;;;;7387243;19;20030;-47
2022/11/23 11:25:34;;;;;;;12.32;3.17;;;11.00;99.90;;;;;;7387331;19;20029;-47
2022/11/23 11:28:04;;;;;;;8.80;2.47;;;11.50;99.90;;;;;;7386601;19;20029;-50
2022/11/23 11:30:45;;;;;;;10.20;2.70;;;12.40;99.90;;;;;;7388341;19;20018;-49
2022/11/23 11:33:20;;;;;;;11.80;3.00;;;13.20;99.90;;;;;;7388623;19;20041;-48
2022/11/23 11:35:50;;;;;;;14.55;3.22;;;14.10;99.90;;;;;;7386112;19;20038;-47
2022/11/23 11:38:46;;;;;;;12.23;2.75;;;14.90;99.90;;;;;;7387823;19;20048;-48
2022/11/23 11:41:15;;;;;;;10.98;2.78;;;15.30;99.90;;;;;;7389498;19;20018;-49
2022/11/23 11:43:45;;;;;;;10.77;2.55;;;16.00;99.90;;;;;;7387177;19;20014;-47
2022/11/23 11:46:14;;;;;;;11.48;3.20;;;15.90;99.90;;;;;;7388719;19;20621;-50
2022/11/23 11:48:50;;;;;;;11.88;2.75;;;16.50;99.90;;;;;;7385890;19;20017;-50
2022/11/23 11:51:41;;;;;;;9.23;2.58;;;16.20;99.90;;;;;;7387664;19;20014;-48
2022/11/23 11:54:30;;;;;;;8.68;2.60;;;16.30;99.90;;;;;;7386441;19;20403;-49
2022/11/23 11:57:05;;;;;;;6.93;1.85;;;16.00;99.90;;;;;;7387668;19;20048;-50
2022/11/23 11:59:42;;;;;;;9.43;2.42;;;16.50;99.90;;;;;;7388169;19;20090;-50
2022/11/23 12:02:25;;;;;;;7.05;1.88;;;16.70;99.90;;;;;;7388333;19;20612;-47
2022/11/23 12:05:19;;;;;;;8.50;2.10;;;17.20;99.90;;;;;;7384896;19;20028;-48
2022/11/23 12:08:01;;;;;;;9.63;2.22;;;17.50;99.90;;;;;;7388816;19;20565;-45
2022/11/23 12:10:36;;;;;;;9.07;2.35;;;17.50;99.90;;;;;;7389984;19;20020;-47
2022/11/23 12:13:03;;;;;;;7.78;1.83;;;17.60;99.90;;;;;;7387941;19;20096;-46
2022/11/23 12:15:42;;;;;;;10.77;2.33;;;17.80;99.90;;;;;;7385857;19;20793;-46
2022/11/23 12:18:57;;;;;;;6.75;2.45;;;17.70;99.90;;;;;;7388150;19;20514;-45
2022/11/23 12:21:45;;;;;;;7.97;2.22;;;17.60;99.90;;;;;;7384591;19;20085;-49
2022/11/23 12:24:34;;;;;;;12.13;2.20;;;16.90;99.90;;;;;;7387583;19;20014;-49
2022/11/23 12:27:20;;;;;;;8.43;1.98;;;16.70;99.90;;;;;;7382958;19;20015;-46
2022/11/23 12:30:12;;;;;;;7.78;1.98;;;16.90;99.90;;;;;;7375965;19;20018;-44
2022/11/23 12:33:00;;;;;;;7.85;2.17;;;16.40;99.90;;;;;;7377984;19;20018;-44
2022/11/23 12:35:57;;;;;;;9.65;2.58;;;16.00;99.90;;;;;;7375097;19;20418;-45
2022/11/23 12:38:37;;;;;;;9.27;2.25;;;15.40;99.90;;;;;;7375954;19;20482;-44
2022/11/23 12:41:06;;;;;;;9.60;2.70;;;15.00;99.90;;;;;;7374896;19;20037;-45
2022/11/23 12:43:40;;;;;;;7.90;2.28;;;15.40;99.90;;;;;;7373859;19;20018;-44
2022/11/23 12:46:16;;;;;;;6.40;1.70;;;16.10;99.90;;;;;;7378623;19;20074;-45
2022/11/23 12:48:58;;;;;;;7.90;2.08;;;16.30;99.90;;;;;;7374586;19;20025;-45
2022/11/23 12:52:02;;;;;;;8.88;2.25;;;16.30;99.90;;;;;;7374531;19;20014;-45
2022/11/23 12:54:40;;;;;;;10.38;2.30;;;16.10;99.90;;;;;;7371859;19;20022;-45
2022/11/23 12:57:36;;;;;;;12.02;2.45;;;16.30;99.90;;;;;;7369840;19;20018;-44
2022/11/23 13:00:13;;;;;;;7.07;1.52;;;16.20;99.90;;;;;;7372326;19;20333;-45
2022/11/23 13:02:57;;;;;;;6.35;1.52;;;15.80;99.90;;;;;;7370250;19;20027;-44
2022/11/23 13:05:42;;;;;;;6.65;1.95;;;15.20;99.90;;;;;;7371699;19;20025;-47
2022/11/23 13:08:31;;;;;;;7.38;1.95;;;15.30;99.90;;;;;;7372374;19;20026;-44
2022/11/23 13:11:12;;;;;;;8.63;2.05;;;15.40;99.90;;;;;;7370698;19;20014;-44
2022/11/23 13:14:11;;;;;;;9.35;2.45;;;15.50;99.90;;;;;;7365038;19;20054;-43
2022/11/23 13:17:15;;;;;;;6.75;1.85;;;16.20;99.90;;;;;;7374871;19;20026;-45
2022/11/23 13:20:03;;;;;;;10.88;1.77;;;16.10;99.90;;;;;;7379080;19;20029;-43
2022/11/23 13:22:31;;;;;;;6.93;1.95;;;16.40;99.90;;;;;;7377309;19;20019;-44
2022/11/23 13:25:12;;;;;;;7.57;2.35;;;16.40;99.90;;;;;;7372821;19;20094;-45